sensor_id;sensor_type;location;lat;lon;timestamp;temperature;humidity
6256;DHT22;3161;48.794;9.784;2022-07-26T00:01:46;22.20;99.90
6256;DHT22;3161;48.794;9.784;2022-07-26T00:04:14;22.20;99.90
6256;DHT22;3161;48.794;9.784;2022-07-26T00:06:42;22.20;99.90
6256;DHT22;3161;48.794;9.784;2022-07-26T00:09:09;22.20;99.90
6256;DHT22;3161;48.794;9.784;2022-07-26T00:11:37;22.20;99.90
6256;DHT22;3161;48.794;9.784;2022-07-26T00:14:06;22.10;99.90
6256;DHT22;3161;48.794;9.784;2022-07-26T00:16:35;22.10;99.90
6256;DHT22;3161;48.794;9.784;2022-07-26T00:19:04;22.10;99.90
6256;DHT22;3161;48.794;9.784;2022-07-26T00:21:34;22.10;99.90
6256;DHT22;3161;48.794;9.784;2022-07-26T00:24:03;22.10;99.90
6256;DHT22;3161;48.794;9.784;2022-07-26T00:26:32;22.10;99.90
6256;DHT22;3161;48.794;9.784;2022-07-26T00:28:59;22.10;99.90
6256;DHT22;3161;48.794;9.784;2022-07-26T00:31:29;22.10;99.90
6256;DHT22;3161;48.794;9.784;2022-07-26T00:33:57;22.00;99.90
6256;DHT22;3161;48.794;9.784;2022-07-26T00:36:25;22.00;99.90
6256;DHT22;3161;48.794;9.784;2022-07-26T00:38:54;22.00;99.90
6256;DHT22;3161;48.794;9.784;2022-07-26T00:41:21;22.00;99.90
6256;DHT22;3161;48.794;9.784;2022-07-26T00:43:58;21.90;99.90
6256;DHT22;3161;48.794;9.784;2022-07-26T00:46:22;22.00;99.90
6256;DHT22;3161;48.794;9.784;2022-07-26T00:48:50;21.90;99.90
6256;DHT22;3161;48.794;9.784;2022-07-26T00:51:18;21.90;99.90
6256;DHT22;3161;48.794;9.784;2022-07-26T00:53:46;21.90;99.90
6256;DHT22;3161;48.794;9.784;2022-07-26T00:56:15;21.90;99.90
6256;DHT22;3161;48.794;9.784;2022-07-26T00:58:44;21.90;99.90
6256;DHT22;3161;48.794;9.784;2022-07-26T01:01:12;21.90;99.90
6256;DHT22;3161;48.794;9.784;2022-07-26T01:03:39;21.90;99.90
6256;DHT22;3161;48.794;9.784;2022-07-26T01:06:08;21.90;99.90
6256;DHT22;3161;48.794;9.784;2022-07-26T01:08:36;21.90;99.90
6256;DHT22;3161;48.794;9.784;2022-07-26T01:11:03;21.90;99.90
6256;DHT22;3161;48.794;9.784;2022-07-26T01:13:31;21.80;99.90
6256;DHT22;3161;48.794;9.784;2022-07-26T01:15:59;21.80;99.90
6256;DHT22;3161;48.794;9.784;2022-07-26T01:18:27;21.80;99.90
6256;DHT22;3161;48.794;9.784;2022-07-26T01:20:56;21.70;99.90
6256;DHT22;3161;48.794;9.784;2022-07-26T01:23:25;21.80;99.90
6256;DHT22;3161;48.794;9.784;2022-07-26T01:25:53;21.80;99.90
6256;DHT22;3161;48.794;9.784;2022-07-26T01:28:20;21.80;99.90
6256;DHT22;3161;48.794;9.784;2022-07-26T01:30:48;21.80;99.90
6256;DHT22;3161;48.794;9.784;2022-07-26T01:33:16;21.80;99.90
6256;DHT22;3161;48.794;9.784;2022-07-26T01:35:43;21.80;99.90
6256;DHT22;3161;48.794;9.784;2022-07-26T01:38:11;21.80;99.90
6256;DHT22;3161;48.794;9.784;2022-07-26T01:40:39;21.90;99.90
6256;DHT22;3161;48.794;9.784;2022-07-26T01:43:06;21.90;99.90
6256;DHT22;3161;48.794;9.784;2022-07-26T01:45:34;21.80;99.90
6256;DHT22;3161;48.794;9.784;2022-07-26T01:48:01;21.80;99.90
6256;DHT22;3161;48.794;9.784;2022-07-26T01:50:29;21.80;99.90
6256;DHT22;3161;48.794;9.784;2022-07-26T01:52:56;21.80;99.90
6256;DHT22;3161;48.794;9.784;2022-07-26T01:55:24;21.90;99.90
6256;DHT22;3161;48.794;9.784;2022-07-26T01:57:51;21.90;99.90
6256;DHT22;3161;48.794;9.784;2022-07-26T02:00:20;21.80;99.90
6256;DHT22;3161;48.794;9.784;2022-07-26T02:02:48;21.70;99.90
6256;DHT22;3161;48.794;9.784;2022-07-26T02:05:15;21.70;99.90
6256;DHT22;3161;48.794;9.784;2022-07-26T02:07:43;21.60;99.90
6256;DHT22;3161;48.794;9.784;2022-07-26T02:10:12;21.50;99.90
6256;DHT22;3161;48.794;9.784;2022-07-26T02:12:40;21.50;99.90
6256;DHT22;3161;48.794;9.784;2022-07-26T02:15:09;21.50;99.90
6256;DHT22;3161;48.794;9.784;2022-07-26T02:17:37;21.40;99.90
6256;DHT22;3161;48.794;9.784;2022-07-26T02:20:06;21.40;99.90
6256;DHT22;3161;48.794;9.784;2022-07-26T02:22:33;21.30;99.90
6256;DHT22;3161;48.794;9.784;2022-07-26T02:25:01;21.30;99.90
6256;DHT22;3161;48.794;9.784;2022-07-26T02:27:28;21.20;99.90
6256;DHT22;3161;48.794;9.784;2022-07-26T02:29:56;21.20;99.90
6256;DHT22;3161;48.794;9.784;2022-07-26T02:32:23;21.10;99.90
6256;DHT22;3161;48.794;9.784;2022-07-26T02:34:51;21.00;99.90
6256;DHT22;3161;48.794;9.784;2022-07-26T02:37:18;20.90;99.90
6256;DHT22;3161;48.794;9.784;2022-07-26T02:39:46;20.90;99.90
6256;DHT22;3161;48.794;9.784;2022-07-26T02:42:14;20.90;99.90
6256;DHT22;3161;48.794;9.784;2022-07-26T02:44:41;20.80;99.90
6256;DHT22;3161;48.794;9.784;2022-07-26T02:47:09;20.80;99.90
6256;DHT22;3161;48.794;9.784;2022-07-26T02:49:36;20.70;99.90
6256;DHT22;3161;48.794;9.784;2022-07-26T02:52:04;20.70;99.90
6256;DHT22;3161;48.794;9.784;2022-07-26T02:54:32;20.70;99.90
6256;DHT22;3161;48.794;9.784;2022-07-26T02:56:59;20.60;99.90
6256;DHT22;3161;48.794;9.784;2022-07-26T02:59:27;20.60;99.90
6256;DHT22;3161;48.794;9.784;2022-07-26T03:01:55;20.60;99.90
6256;DHT22;3161;48.794;9.784;2022-07-26T03:04:22;20.60;99.90
6256;DHT22;3161;48.794;9.784;2022-07-26T03:06:50;20.50;99.90
6256;DHT22;3161;48.794;9.784;2022-07-26T03:09:17;20.50;99.90
6256;DHT22;3161;48.794;9.784;2022-07-26T03:11:45;20.50;99.90
6256;DHT22;3161;48.794;9.784;2022-07-26T03:14:13;20.50;99.90
6256;DHT22;3161;48.794;9.784;2022-07-26T03:16:40;20.50;99.90
6256;DHT22;3161;48.794;9.784;2022-07-26T03:19:08;20.50;99.90
6256;DHT22;3161;48.794;9.784;2022-07-26T03:21:35;20.50;99.90
6256;DHT22;3161;48.794;9.784;2022-07-26T03:24:22;20.50;99.90
6256;DHT22;3161;48.794;9.784;2022-07-26T03:26:50;20.40;99.90
6256;DHT22;3161;48.794;9.784;2022-07-26T03:29:18;20.40;99.90
6256;DHT22;3161;48.794;9.784;2022-07-26T03:31:45;20.40;99.90
6256;DHT22;3161;48.794;9.784;2022-07-26T03:34:13;20.40;99.90
6256;DHT22;3161;48.794;9.784;2022-07-26T03:36:41;20.50;99.90
6256;DHT22;3161;48.794;9.784;2022-07-26T03:39:10;20.40;99.90
6256;DHT22;3161;48.794;9.784;2022-07-26T03:41:37;20.40;99.90
6256;DHT22;3161;48.794;9.784;2022-07-26T03:44:05;20.30;99.90
6256;DHT22;3161;48.794;9.784;2022-07-26T03:46:32;20.30;99.90
6256;DHT22;3161;48.794;9.784;2022-07-26T03:49:00;20.20;99.90
6256;DHT22;3161;48.794;9.784;2022-07-26T03:51:28;20.20;99.90
6256;DHT22;3161;48.794;9.784;2022-07-26T03:53:55;20.10;99.90
6256;DHT22;3161;48.794;9.784;2022-07-26T03:56:23;20.10;99.90
6256;DHT22;3161;48.794;9.784;2022-07-26T03:59:05;20.20;99.90
6256;DHT22;3161;48.794;9.784;2022-07-26T04:01:33;20.20;99.90
6256;DHT22;3161;48.794;9.784;2022-07-26T04:04:01;20.20;99.90
6256;DHT22;3161;48.794;9.784;2022-07-26T04:06:29;20.20;99.90
6256;DHT22;3161;48.794;9.784;2022-07-26T04:08:56;20.20;99.90
6256;DHT22;3161;48.794;9.784;2022-07-26T04:11:24;20.20;99.90
6256;DHT22;3161;48.794;9.784;2022-07-26T04:13:51;20.20;99.90
6256;DHT22;3161;48.794;9.784;2022-07-26T04:16:19;20.20;99.90
6256;DHT22;3161;48.794;9.784;2022-07-26T04:18:47;20.20;99.90
6256;DHT22;3161;48.794;9.784;2022-07-26T04:21:15;20.20;99.90
6256;DHT22;3161;48.794;9.784;2022-07-26T04:23:43;20.10;99.90
6256;DHT22;3161;48.794;9.784;2022-07-26T04:26:10;20.20;99.90
6256;DHT22;3161;48.794;9.784;2022-07-26T04:28:41;20.20;99.90
6256;DHT22;3161;48.794;9.784;2022-07-26T04:31:08;20.20;99.90
6256;DHT22;3161;48.794;9.784;2022-07-26T04:33:36;20.20;99.90
6256;DHT22;3161;48.794;9.784;2022-07-26T04:36:04;20.20;99.90
6256;DHT22;3161;48.794;9.784;2022-07-26T04:38:32;20.20;99.90
6256;DHT22;3161;48.794;9.784;2022-07-26T04:40:59;20.20;99.90
6256;DHT22;3161;48.794;9.784;2022-07-26T04:43:27;20.20;99.90
6256;DHT22;3161;48.794;9.784;2022-07-26T04:45:55;20.20;99.90
6256;DHT22;3161;48.794;9.784;2022-07-26T04:48:24;20.10;99.90
6256;DHT22;3161;48.794;9.784;2022-07-26T04:50:52;20.10;99.90
6256;DHT22;3161;48.794;9.784;2022-07-26T04:53:19;20.10;99.90
6256;DHT22;3161;48.794;9.784;2022-07-26T04:55:47;20.10;99.90
6256;DHT22;3161;48.794;9.784;2022-07-26T04:58:14;20.10;99.90
6256;DHT22;3161;48.794;9.784;2022-07-26T05:00:42;20.00;99.90
6256;DHT22;3161;48.794;9.784;2022-07-26T05:03:10;20.00;99.90
6256;DHT22;3161;48.794;9.784;2022-07-26T05:05:37;20.10;99.90
6256;DHT22;3161;48.794;9.784;2022-07-26T05:08:05;20.10;99.90
6256;DHT22;3161;48.794;9.784;2022-07-26T05:10:35;20.10;99.90
6256;DHT22;3161;48.794;9.784;2022-07-26T05:13:04;20.10;99.90
6256;DHT22;3161;48.794;9.784;2022-07-26T05:15:34;20.20;99.90
6256;DHT22;3161;48.794;9.784;2022-07-26T05:18:04;20.20;99.90
6256;DHT22;3161;48.794;9.784;2022-07-26T05:20:32;20.20;99.90
6256;DHT22;3161;48.794;9.784;2022-07-26T05:23:00;20.20;99.90
6256;DHT22;3161;48.794;9.784;2022-07-26T05:25:28;20.20;99.90
6256;DHT22;3161;48.794;9.784;2022-07-26T05:27:55;20.20;99.90
6256;DHT22;3161;48.794;9.784;2022-07-26T05:30:23;20.10;99.90
6256;DHT22;3161;48.794;9.784;2022-07-26T05:32:51;20.10;99.90
6256;DHT22;3161;48.794;9.784;2022-07-26T05:35:19;20.10;99.90
6256;DHT22;3161;48.794;9.784;2022-07-26T05:37:46;20.20;99.90
6256;DHT22;3161;48.794;9.784;2022-07-26T05:40:14;20.20;99.90
6256;DHT22;3161;48.794;9.784;2022-07-26T05:42:42;20.20;99.90
6256;DHT22;3161;48.794;9.784;2022-07-26T05:45:10;20.30;99.90
6256;DHT22;3161;48.794;9.784;2022-07-26T05:47:38;20.40;99.90
6256;DHT22;3161;48.794;9.784;2022-07-26T05:50:06;20.50;99.90
6256;DHT22;3161;48.794;9.784;2022-07-26T05:52:33;20.50;99.90
6256;DHT22;3161;48.794;9.784;2022-07-26T05:55:01;20.60;99.90
6256;DHT22;3161;48.794;9.784;2022-07-26T05:57:29;20.70;99.90
6256;DHT22;3161;48.794;9.784;2022-07-26T05:59:57;20.80;99.90
6256;DHT22;3161;48.794;9.784;2022-07-26T06:02:24;20.80;99.90
6256;DHT22;3161;48.794;9.784;2022-07-26T06:04:52;20.90;99.90
6256;DHT22;3161;48.794;9.784;2022-07-26T06:07:19;21.00;99.90
6256;DHT22;3161;48.794;9.784;2022-07-26T06:09:47;21.10;99.90
6256;DHT22;3161;48.794;9.784;2022-07-26T06:12:14;21.20;99.90
6256;DHT22;3161;48.794;9.784;2022-07-26T06:14:42;21.20;99.90
6256;DHT22;3161;48.794;9.784;2022-07-26T06:17:10;21.40;99.90
6256;DHT22;3161;48.794;9.784;2022-07-26T06:19:38;21.50;99.90
6256;DHT22;3161;48.794;9.784;2022-07-26T06:22:05;21.60;99.90
6256;DHT22;3161;48.794;9.784;2022-07-26T06:24:33;21.80;99.90
6256;DHT22;3161;48.794;9.784;2022-07-26T06:27:00;22.00;99.90
6256;DHT22;3161;48.794;9.784;2022-07-26T06:29:28;22.10;99.90
6256;DHT22;3161;48.794;9.784;2022-07-26T06:31:55;22.30;99.90
6256;DHT22;3161;48.794;9.784;2022-07-26T06:34:23;22.40;99.90
6256;DHT22;3161;48.794;9.784;2022-07-26T06:36:51;22.50;99.90
6256;DHT22;3161;48.794;9.784;2022-07-26T06:39:18;22.50;99.90
6256;DHT22;3161;48.794;9.784;2022-07-26T06:41:46;22.50;99.90
6256;DHT22;3161;48.794;9.784;2022-07-26T06:44:14;22.60;99.90
6256;DHT22;3161;48.794;9.784;2022-07-26T06:46:41;22.60;99.90
6256;DHT22;3161;48.794;9.784;2022-07-26T06:49:09;22.80;99.90
6256;DHT22;3161;48.794;9.784;2022-07-26T06:51:36;22.90;99.90
6256;DHT22;3161;48.794;9.784;2022-07-26T06:54:04;23.00;99.90
6256;DHT22;3161;48.794;9.784;2022-07-26T06:56:31;23.10;99.90
6256;DHT22;3161;48.794;9.784;2022-07-26T06:58:59;23.30;99.90
6256;DHT22;3161;48.794;9.784;2022-07-26T07:01:26;23.40;99.90
6256;DHT22;3161;48.794;9.784;2022-07-26T07:03:54;23.50;99.90
6256;DHT22;3161;48.794;9.784;2022-07-26T07:06:22;23.60;99.90
6256;DHT22;3161;48.794;9.784;2022-07-26T07:08:49;23.60;99.90
6256;DHT22;3161;48.794;9.784;2022-07-26T07:11:17;23.60;99.90
6256;DHT22;3161;48.794;9.784;2022-07-26T07:14:04;23.60;99.90
6256;DHT22;3161;48.794;9.784;2022-07-26T07:16:32;23.60;99.90
6256;DHT22;3161;48.794;9.784;2022-07-26T07:18:59;23.80;99.90
6256;DHT22;3161;48.794;9.784;2022-07-26T07:21:27;24.00;99.90
6256;DHT22;3161;48.794;9.784;2022-07-26T07:23:54;24.10;99.90
6256;DHT22;3161;48.794;9.784;2022-07-26T07:26:22;24.10;99.90
6256;DHT22;3161;48.794;9.784;2022-07-26T07:28:49;24.20;99.90
6256;DHT22;3161;48.794;9.784;2022-07-26T07:31:16;24.30;99.90
6256;DHT22;3161;48.794;9.784;2022-07-26T07:33:44;24.30;99.90
6256;DHT22;3161;48.794;9.784;2022-07-26T07:36:11;24.30;99.90
6256;DHT22;3161;48.794;9.784;2022-07-26T07:38:39;24.30;99.90
6256;DHT22;3161;48.794;9.784;2022-07-26T07:41:06;24.30;99.90
6256;DHT22;3161;48.794;9.784;2022-07-26T07:43:34;24.30;99.90
6256;DHT22;3161;48.794;9.784;2022-07-26T07:46:02;24.40;99.90
6256;DHT22;3161;48.794;9.784;2022-07-26T07:48:30;24.40;99.90
6256;DHT22;3161;48.794;9.784;2022-07-26T07:50:57;24.50;99.90
6256;DHT22;3161;48.794;9.784;2022-07-26T07:53:25;24.50;99.90
6256;DHT22;3161;48.794;9.784;2022-07-26T07:55:52;24.70;99.90
6256;DHT22;3161;48.794;9.784;2022-07-26T07:58:20;24.80;99.90
6256;DHT22;3161;48.794;9.784;2022-07-26T08:00:47;25.00;99.90
6256;DHT22;3161;48.794;9.784;2022-07-26T08:03:15;25.00;99.90
6256;DHT22;3161;48.794;9.784;2022-07-26T08:05:43;25.20;99.90
6256;DHT22;3161;48.794;9.784;2022-07-26T08:08:11;25.30;99.90
6256;DHT22;3161;48.794;9.784;2022-07-26T08:10:38;25.40;99.90
6256;DHT22;3161;48.794;9.784;2022-07-26T08:13:06;25.40;99.90
6256;DHT22;3161;48.794;9.784;2022-07-26T08:15:33;25.40;99.90
6256;DHT22;3161;48.794;9.784;2022-07-26T08:18:01;25.40;99.90
6256;DHT22;3161;48.794;9.784;2022-07-26T08:20:28;25.50;99.90
6256;DHT22;3161;48.794;9.784;2022-07-26T08:22:56;25.60;99.90
6256;DHT22;3161;48.794;9.784;2022-07-26T08:25:23;25.70;99.90
6256;DHT22;3161;48.794;9.784;2022-07-26T08:27:51;25.70;99.90
6256;DHT22;3161;48.794;9.784;2022-07-26T08:30:19;25.70;99.90
6256;DHT22;3161;48.794;9.784;2022-07-26T08:32:46;25.70;99.90
6256;DHT22;3161;48.794;9.784;2022-07-26T08:35:14;25.90;99.90
6256;DHT22;3161;48.794;9.784;2022-07-26T08:37:41;26.10;99.90
6256;DHT22;3161;48.794;9.784;2022-07-26T08:40:09;26.20;99.90
6256;DHT22;3161;48.794;9.784;2022-07-26T08:42:37;26.30;99.90
6256;DHT22;3161;48.794;9.784;2022-07-26T08:45:05;26.40;99.90
6256;DHT22;3161;48.794;9.784;2022-07-26T08:47:32;26.50;99.60
6256;DHT22;3161;48.794;9.784;2022-07-26T08:50:01;26.60;99.90
6256;DHT22;3161;48.794;9.784;2022-07-26T08:52:29;26.70;99.90
6256;DHT22;3161;48.794;9.784;2022-07-26T08:54:57;26.80;99.90
6256;DHT22;3161;48.794;9.784;2022-07-26T08:57:24;26.70;99.90
6256;DHT22;3161;48.794;9.784;2022-07-26T09:00:20;26.60;99.10
6256;DHT22;3161;48.794;9.784;2022-07-26T09:02:46;26.50;99.90
6256;DHT22;3161;48.794;9.784;2022-07-26T09:05:14;26.60;99.90
6256;DHT22;3161;48.794;9.784;2022-07-26T09:07:43;26.60;99.90
6256;DHT22;3161;48.794;9.784;2022-07-26T09:10:15;26.70;99.90
6256;DHT22;3161;48.794;9.784;2022-07-26T09:12:43;26.90;99.90
6256;DHT22;3161;48.794;9.784;2022-07-26T09:15:19;27.00;97.50
6256;DHT22;3161;48.794;9.784;2022-07-26T09:17:50;27.10;96.00
6256;DHT22;3161;48.794;9.784;2022-07-26T09:20:24;27.20;94.80
6256;DHT22;3161;48.794;9.784;2022-07-26T09:23:00;27.20;94.30
6256;DHT22;3161;48.794;9.784;2022-07-26T09:25:33;27.20;95.50
6256;DHT22;3161;48.794;9.784;2022-07-26T09:28:02;27.30;97.80
6256;DHT22;3161;48.794;9.784;2022-07-26T09:30:31;27.50;95.40
6256;DHT22;3161;48.794;9.784;2022-07-26T09:33:04;27.60;95.90
6256;DHT22;3161;48.794;9.784;2022-07-26T09:35:35;27.50;92.80
6256;DHT22;3161;48.794;9.784;2022-07-26T09:38:13;27.30;95.30
6256;DHT22;3161;48.794;9.784;2022-07-26T09:40:41;27.30;93.20
6256;DHT22;3161;48.794;9.784;2022-07-26T09:43:09;27.30;95.00
6256;DHT22;3161;48.794;9.784;2022-07-26T09:45:38;27.40;93.20
6256;DHT22;3161;48.794;9.784;2022-07-26T09:48:09;27.50;91.40
6256;DHT22;3161;48.794;9.784;2022-07-26T09:50:36;27.60;92.70
6256;DHT22;3161;48.794;9.784;2022-07-26T09:53:07;27.70;90.80
6256;DHT22;3161;48.794;9.784;2022-07-26T09:55:57;27.70;90.50
6256;DHT22;3161;48.794;9.784;2022-07-26T09:58:05;27.80;91.00
6256;DHT22;3161;48.794;9.784;2022-07-26T10:00:33;27.90;91.40
6256;DHT22;3161;48.794;9.784;2022-07-26T10:03:01;27.80;90.80
6256;DHT22;3161;48.794;9.784;2022-07-26T10:05:28;27.70;90.50
6256;DHT22;3161;48.794;9.784;2022-07-26T10:07:56;27.60;88.60
6256;DHT22;3161;48.794;9.784;2022-07-26T10:10:42;27.60;89.80
6256;DHT22;3161;48.794;9.784;2022-07-26T10:13:10;27.50;84.30
6256;DHT22;3161;48.794;9.784;2022-07-26T10:15:46;27.60;85.90
6256;DHT22;3161;48.794;9.784;2022-07-26T10:19:01;27.60;88.00
6256;DHT22;3161;48.794;9.784;2022-07-26T10:20:51;27.70;86.90
6256;DHT22;3161;48.794;9.784;2022-07-26T10:26:02;27.70;87.70
6256;DHT22;3161;48.794;9.784;2022-07-26T10:28:31;27.60;84.50
6256;DHT22;3161;48.794;9.784;2022-07-26T10:33:49;27.60;82.70
6256;DHT22;3161;48.794;9.784;2022-07-26T10:36:28;27.60;80.40
6256;DHT22;3161;48.794;9.784;2022-07-26T10:39:14;27.50;80.10
6256;DHT22;3161;48.794;9.784;2022-07-26T10:41:55;27.50;85.10
6256;DHT22;3161;48.794;9.784;2022-07-26T10:44:19;27.60;84.70
6256;DHT22;3161;48.794;9.784;2022-07-26T10:49:40;27.60;85.80
6256;DHT22;3161;48.794;9.784;2022-07-26T10:52:13;27.50;79.60
6256;DHT22;3161;48.794;9.784;2022-07-26T10:57:30;27.50;83.10
6256;DHT22;3161;48.794;9.784;2022-07-26T10:59:59;27.60;83.40
6256;DHT22;3161;48.794;9.784;2022-07-26T11:02:29;27.70;78.30
6256;DHT22;3161;48.794;9.784;2022-07-26T11:05:03;27.80;82.60
6256;DHT22;3161;48.794;9.784;2022-07-26T11:07:41;27.90;80.00
6256;DHT22;3161;48.794;9.784;2022-07-26T11:10:04;28.00;82.10
6256;DHT22;3161;48.794;9.784;2022-07-26T11:12:31;28.00;80.70
6256;DHT22;3161;48.794;9.784;2022-07-26T11:15:12;28.10;80.00
6256;DHT22;3161;48.794;9.784;2022-07-26T11:17:30;28.20;79.50
6256;DHT22;3161;48.794;9.784;2022-07-26T11:19:58;28.30;79.40
6256;DHT22;3161;48.794;9.784;2022-07-26T11:22:32;28.30;75.10
6256;DHT22;3161;48.794;9.784;2022-07-26T11:25:02;28.40;78.80
6256;DHT22;3161;48.794;9.784;2022-07-26T11:27:30;28.40;78.90
6256;DHT22;3161;48.794;9.784;2022-07-26T11:30:05;28.50;79.00
6256;DHT22;3161;48.794;9.784;2022-07-26T11:32:33;28.50;78.20
6256;DHT22;3161;48.794;9.784;2022-07-26T11:35:03;28.50;71.90
6256;DHT22;3161;48.794;9.784;2022-07-26T11:37:31;28.50;72.90
6256;DHT22;3161;48.794;9.784;2022-07-26T11:39:58;28.50;77.20
6256;DHT22;3161;48.794;9.784;2022-07-26T11:42:26;28.60;77.60
6256;DHT22;3161;48.794;9.784;2022-07-26T11:44:53;28.50;75.50
6256;DHT22;3161;48.794;9.784;2022-07-26T11:47:22;28.60;76.10
6256;DHT22;3161;48.794;9.784;2022-07-26T11:49:49;28.60;74.90
6256;DHT22;3161;48.794;9.784;2022-07-26T11:52:17;28.60;75.80
6256;DHT22;3161;48.794;9.784;2022-07-26T11:54:48;28.60;75.90
6256;DHT22;3161;48.794;9.784;2022-07-26T11:57:17;28.70;75.60
6256;DHT22;3161;48.794;9.784;2022-07-26T11:59:46;28.70;75.50
6256;DHT22;3161;48.794;9.784;2022-07-26T12:02:16;28.70;73.00
6256;DHT22;3161;48.794;9.784;2022-07-26T12:04:44;28.70;75.70
6256;DHT22;3161;48.794;9.784;2022-07-26T12:07:14;28.80;75.00
6256;DHT22;3161;48.794;9.784;2022-07-26T12:09:50;28.80;73.30
6256;DHT22;3161;48.794;9.784;2022-07-26T12:12:25;29.00;74.70
6256;DHT22;3161;48.794;9.784;2022-07-26T12:15:01;29.10;74.20
6256;DHT22;3161;48.794;9.784;2022-07-26T12:17:30;29.30;70.90
6256;DHT22;3161;48.794;9.784;2022-07-26T12:20:15;29.50;68.30
6256;DHT22;3161;48.794;9.784;2022-07-26T12:22:54;29.70;66.80
6256;DHT22;3161;48.794;9.784;2022-07-26T12:25:29;29.90;68.50
6256;DHT22;3161;48.794;9.784;2022-07-26T12:27:53;30.50;67.00
6256;DHT22;3161;48.794;9.784;2022-07-26T12:30:21;31.40;62.70
6256;DHT22;3161;48.794;9.784;2022-07-26T12:32:50;32.40;59.70
6256;DHT22;3161;48.794;9.784;2022-07-26T12:35:28;33.20;59.50
6256;DHT22;3161;48.794;9.784;2022-07-26T12:37:58;34.10;57.00
6256;DHT22;3161;48.794;9.784;2022-07-26T12:40:28;34.90;53.20
6256;DHT22;3161;48.794;9.784;2022-07-26T12:43:00;35.50;51.20
6256;DHT22;3161;48.794;9.784;2022-07-26T12:45:30;36.00;49.30
6256;DHT22;3161;48.794;9.784;2022-07-26T12:48:01;36.20;47.30
6256;DHT22;3161;48.794;9.784;2022-07-26T12:50:29;35.40;45.40
6256;DHT22;3161;48.794;9.784;2022-07-26T12:53:07;34.50;48.10
6256;DHT22;3161;48.794;9.784;2022-07-26T12:55:31;33.70;50.40
6256;DHT22;3161;48.794;9.784;2022-07-26T12:57:59;33.00;50.30
6256;DHT22;3161;48.794;9.784;2022-07-26T13:00:27;32.50;48.90
6256;DHT22;3161;48.794;9.784;2022-07-26T13:02:55;32.00;52.00
6256;DHT22;3161;48.794;9.784;2022-07-26T13:05:23;31.60;50.00
6256;DHT22;3161;48.794;9.784;2022-07-26T13:07:51;31.10;50.90
6256;DHT22;3161;48.794;9.784;2022-07-26T13:10:19;30.90;52.70
6256;DHT22;3161;48.794;9.784;2022-07-26T13:12:47;30.70;53.60
6256;DHT22;3161;48.794;9.784;2022-07-26T13:15:14;30.70;53.00
6256;DHT22;3161;48.794;9.784;2022-07-26T13:17:42;30.90;55.40
6256;DHT22;3161;48.794;9.784;2022-07-26T13:20:10;31.20;54.30
6256;DHT22;3161;48.794;9.784;2022-07-26T13:22:37;31.40;53.80
6256;DHT22;3161;48.794;9.784;2022-07-26T13:25:05;31.60;52.80
6256;DHT22;3161;48.794;9.784;2022-07-26T13:27:33;31.70;52.30
6256;DHT22;3161;48.794;9.784;2022-07-26T13:30:00;31.80;53.70
6256;DHT22;3161;48.794;9.784;2022-07-26T13:32:28;32.10;50.10
6256;DHT22;3161;48.794;9.784;2022-07-26T13:34:55;32.90;48.80
6256;DHT22;3161;48.794;9.784;2022-07-26T13:37:23;34.50;48.50
6256;DHT22;3161;48.794;9.784;2022-07-26T13:39:50;37.00;46.90
6256;DHT22;3161;48.794;9.784;2022-07-26T13:42:18;39.70;38.80
6256;DHT22;3161;48.794;9.784;2022-07-26T13:44:45;41.80;38.00
6256;DHT22;3161;48.794;9.784;2022-07-26T13:47:13;43.60;33.20
6256;DHT22;3161;48.794;9.784;2022-07-26T13:49:40;45.00;31.00
6256;DHT22;3161;48.794;9.784;2022-07-26T13:52:08;44.90;29.20
6256;DHT22;3161;48.794;9.784;2022-07-26T13:54:36;44.80;28.70
6256;DHT22;3161;48.794;9.784;2022-07-26T13:57:04;45.40;26.40
6256;DHT22;3161;48.794;9.784;2022-07-26T13:59:33;46.10;27.40
6256;DHT22;3161;48.794;9.784;2022-07-26T14:02:01;47.20;25.90
6256;DHT22;3161;48.794;9.784;2022-07-26T14:04:30;48.20;24.90
6256;DHT22;3161;48.794;9.784;2022-07-26T14:06:57;48.80;24.40
6256;DHT22;3161;48.794;9.784;2022-07-26T14:09:25;49.50;23.70
6256;DHT22;3161;48.794;9.784;2022-07-26T14:11:52;49.70;24.70
6256;DHT22;3161;48.794;9.784;2022-07-26T14:14:20;49.80;23.50
6256;DHT22;3161;48.794;9.784;2022-07-26T14:16:48;48.80;23.40
6256;DHT22;3161;48.794;9.784;2022-07-26T14:19:17;46.30;24.90
6256;DHT22;3161;48.794;9.784;2022-07-26T14:21:44;43.70;25.60
6256;DHT22;3161;48.794;9.784;2022-07-26T14:24:13;41.20;26.40
6256;DHT22;3161;48.794;9.784;2022-07-26T14:26:41;39.30;28.70
6256;DHT22;3161;48.794;9.784;2022-07-26T14:29:09;37.60;29.80
6256;DHT22;3161;48.794;9.784;2022-07-26T14:31:36;36.00;31.20
6256;DHT22;3161;48.794;9.784;2022-07-26T14:34:04;34.90;32.30
6256;DHT22;3161;48.794;9.784;2022-07-26T14:36:31;34.00;35.60
6256;DHT22;3161;48.794;9.784;2022-07-26T14:38:59;33.40;36.80
6256;DHT22;3161;48.794;9.784;2022-07-26T14:41:27;32.70;34.80
6256;DHT22;3161;48.794;9.784;2022-07-26T14:43:54;32.20;35.50
6256;DHT22;3161;48.794;9.784;2022-07-26T14:46:22;31.70;37.80
6256;DHT22;3161;48.794;9.784;2022-07-26T14:48:49;31.40;39.40
6256;DHT22;3161;48.794;9.784;2022-07-26T14:51:17;31.20;40.80
6256;DHT22;3161;48.794;9.784;2022-07-26T14:53:44;31.00;42.60
6256;DHT22;3161;48.794;9.784;2022-07-26T14:56:12;30.60;43.70
6256;DHT22;3161;48.794;9.784;2022-07-26T14:58:40;30.40;44.70
6256;DHT22;3161;48.794;9.784;2022-07-26T15:01:07;30.30;44.30
6256;DHT22;3161;48.794;9.784;2022-07-26T15:03:35;30.20;44.40
6256;DHT22;3161;48.794;9.784;2022-07-26T15:06:02;30.00;45.20
6256;DHT22;3161;48.794;9.784;2022-07-26T15:08:30;29.90;45.20
6256;DHT22;3161;48.794;9.784;2022-07-26T15:10:57;29.80;45.00
6256;DHT22;3161;48.794;9.784;2022-07-26T15:13:25;29.70;46.40
6256;DHT22;3161;48.794;9.784;2022-07-26T15:15:53;29.70;47.00
6256;DHT22;3161;48.794;9.784;2022-07-26T15:18:21;29.60;45.40
6256;DHT22;3161;48.794;9.784;2022-07-26T15:20:49;29.60;45.30
6256;DHT22;3161;48.794;9.784;2022-07-26T15:23:17;29.40;46.40
6256;DHT22;3161;48.794;9.784;2022-07-26T15:25:44;29.20;46.00
6256;DHT22;3161;48.794;9.784;2022-07-26T15:28:14;29.10;44.90
6256;DHT22;3161;48.794;9.784;2022-07-26T15:30:42;28.90;46.40
6256;DHT22;3161;48.794;9.784;2022-07-26T15:33:09;28.80;45.70
6256;DHT22;3161;48.794;9.784;2022-07-26T15:35:37;28.70;46.40
6256;DHT22;3161;48.794;9.784;2022-07-26T15:38:06;28.60;46.10
6256;DHT22;3161;48.794;9.784;2022-07-26T15:40:33;28.40;46.70
6256;DHT22;3161;48.794;9.784;2022-07-26T15:43:01;28.30;48.40
6256;DHT22;3161;48.794;9.784;2022-07-26T15:45:29;28.20;47.90
6256;DHT22;3161;48.794;9.784;2022-07-26T15:47:56;28.20;47.20
6256;DHT22;3161;48.794;9.784;2022-07-26T15:50:24;28.10;47.20
6256;DHT22;3161;48.794;9.784;2022-07-26T15:52:52;28.00;47.50
6256;DHT22;3161;48.794;9.784;2022-07-26T15:55:20;28.00;47.90
6256;DHT22;3161;48.794;9.784;2022-07-26T15:57:47;27.90;48.60
6256;DHT22;3161;48.794;9.784;2022-07-26T16:00:16;27.90;48.20
6256;DHT22;3161;48.794;9.784;2022-07-26T16:02:44;27.90;48.40
6256;DHT22;3161;48.794;9.784;2022-07-26T16:05:12;27.80;48.00
6256;DHT22;3161;48.794;9.784;2022-07-26T16:07:41;27.70;48.10
6256;DHT22;3161;48.794;9.784;2022-07-26T16:10:11;27.70;48.90
6256;DHT22;3161;48.794;9.784;2022-07-26T16:12:41;27.60;49.00
6256;DHT22;3161;48.794;9.784;2022-07-26T16:15:09;27.60;49.90
6256;DHT22;3161;48.794;9.784;2022-07-26T16:17:37;27.60;49.60
6256;DHT22;3161;48.794;9.784;2022-07-26T16:20:07;27.60;48.10
6256;DHT22;3161;48.794;9.784;2022-07-26T16:22:35;27.50;47.30